Latest Weather Observations for Tasman Island

IDT60901

Issued at 5:05 am EST Thursday 31 July 2014 (issued every 10 minutes, with the page automatically refreshed every 10 minutes)

About weather observations | Map of Hobart area stations | Latest observations for Hobart area | Other Formats
Station Details ID: 094155 Name: TASMAN ISLAND Lat: -43.24 Lon: 148.00 Height: 240.0 m
Data from the previous 72 hours. | See also: Recent months at Tasman Island
Date/Time
EST
Tmp

°C
App
Tmp
°C
Dew
Point
°C
Rel
Hum
%
Delta-T

°C
Wind Press
QNH
hPa
Press
MSL
hPa
Rain
since
9 am
mm
Dir
 
Spd
km/h
Gust
km/h
Spd
kts
Gust
kts
31/05:00am 6.5 1.1 6.4 99 0.0 SSW 24 46 13 25 988.8 989.0 9.4
31/04:30am 6.5 -1.0 6.4 99 0.0 SW 35 61 19 33 988.8 - 7.6
31/04:08am 7.1 1.1 7.0 99 0.0 SSW 28 50 15 27 988.7 - 6.0
31/04:00am 7.2 2.3 6.8 97 0.2 SSW 22 41 12 22 988.7 988.9 5.2
31/03:30am 7.5 2.6 6.9 96 0.3 SSW 22 39 12 21 988.4 - 4.8
31/03:00am 8.6 5.2 7.8 95 0.4 NNW 15 48 8 26 989.1 989.3 4.6
31/02:30am 9.2 6.3 8.1 93 0.5 NW 13 43 7 23 989.0 - 3.8
31/02:00am 11.2 7.5 6.5 73 2.3 WSW 15 37 8 20 988.0 988.3 2.0
31/01:48am 11.4 7.7 6.3 71 2.4 WSW 15 39 8 21 987.8 - 2.0
31/01:30am 11.4 0.3 6.3 71 2.4 NW 54 82 29 44 987.6 - 2.0
31/01:00am 12.2 0.8 4.9 61 3.4 NW 54 89 29 48 987.2 987.4 2.0
31/12:30am 11.9 -1.7 4.4 60 3.4 NW 65 95 35 51 987.0 - 2.0
31/12:00am 12.1 -0.3 4.8 61 3.4 NW 59 80 32 43 987.2 987.4 2.0
 
Date/Time
EST
Tmp

°C
App
Tmp
°C
Dew
Point
°C
Rel
Hum
%
Delta-T

°C
Wind Press
QNH
hPa
Press
MSL
hPa
Rain
since
9 am
mm
Dir
 
Spd
km/h
Gust
km/h
Spd
kts
Gust
kts
30/11:30pm 12.2 0.7 4.4 59 3.6 WNW 54 78 29 42 987.5 - 2.0
30/11:29pm 12.3 0.8 4.3 58 3.7 NW 54 74 29 40 987.5 - 2.0
30/11:00pm 12.4 -3.7 4.1 57 3.8 WNW 78 104 42 56 987.1 987.3 2.0
30/10:40pm 12.4 -2.2 3.9 56 3.9 NW 70 100 38 54 987.5 - 1.8
30/10:30pm 12.2 1.0 3.9 57 3.8 NW 52 80 28 43 987.9 - 1.8
30/10:00pm 11.7 0.7 5.1 64 3.1 NW 52 78 28 42 988.6 988.8 1.8
30/09:30pm 11.1 0.2 5.6 69 2.6 NW 52 76 28 41 989.4 - 1.8
30/09:00pm 10.7 -0.9 6.5 75 2.0 NW 57 87 31 47 989.4 989.6 1.8
30/08:55pm 10.5 -0.9 6.6 77 1.9 NW 56 87 30 47 989.5 - 1.8
30/08:30pm 10.3 1.0 5.9 74 2.1 NNW 44 65 24 35 990.4 - 1.6
30/08:00pm 10.3 1.9 5.7 73 2.2 NW 39 63 21 34 990.8 991.0 1.6
30/07:30pm 11.0 1.2 5.5 69 2.6 WNW 46 72 25 39 990.8 - 1.6
30/07:17pm 11.1 -0.2 5.6 69 2.6 NW 54 85 29 46 991.1 - 1.6
30/07:00pm 10.8 2.2 6.4 74 2.1 NW 41 63 22 34 991.5 991.8 1.6
30/06:49pm 10.4 3.5 7.1 80 1.6 NW 33 57 18 31 992.0 - 1.6
30/06:30pm 10.1 3.5 7.7 85 1.2 NW 32 50 17 27 992.0 - 1.6
30/06:00pm 9.7 3.1 8.5 92 0.6 NW 33 54 18 29 992.4 992.7 1.4
30/05:41pm 9.3 2.7 8.7 96 0.3 NNW 33 43 18 23 992.3 - 1.2
30/05:30pm 8.6 6.1 8.2 97 0.2 NNW 11 22 6 12 992.5 - 1.2
30/05:00pm 9.1 6.9 8.0 93 0.5 SSW 9 22 5 12 992.8 993.0 1.2
30/04:30pm 9.4 7.4 7.3 87 1.0 WNW 7 24 4 13 993.2 - 1.2
30/04:00pm 9.7 5.8 7.0 83 1.3 WNW 17 32 9 17 992.7 992.9 1.0
30/03:30pm 9.6 6.4 7.0 84 1.2 W 13 30 7 16 992.2 - 1.0
30/03:00pm 9.5 5.0 6.9 84 1.2 WNW 20 46 11 25 992.8 993.0 1.0
30/02:30pm 9.7 3.9 8.0 89 0.8 WNW 28 43 15 23 993.1 - 1.0
30/02:00pm 8.9 6.4 8.1 95 0.4 W 11 28 6 15 993.4 993.6 0.6
30/01:30pm 8.7 6.4 7.6 93 0.5 NNW 9 24 5 13 993.3 - 0.6
30/01:00pm 10.3 5.7 6.6 78 1.8 WSW 20 48 11 26 993.5 993.7 0.0
30/12:30pm 11.4 4.2 5.7 68 2.7 NW 33 57 18 31 993.2 - 0.0
30/12:28pm 11.4 3.3 5.3 66 2.8 NW 37 57 20 31 993.3 - 0.0
30/12:27pm 11.5 3.1 5.4 66 2.9 NW 39 57 21 31 993.2 - 0.0
30/12:00pm 11.7 -0.7 4.7 62 3.3 WNW 59 83 32 45 992.7 992.9 0.0
30/11:30am 11.6 0.8 4.3 61 3.3 WNW 50 76 27 41 992.7 - 0.0
30/11:00am 11.2 -0.7 4.4 63 3.1 WNW 56 83 30 45 993.1 993.3 0.0
30/10:30am 10.6 -0.2 4.1 64 2.9 NW 50 70 27 38 993.7 - 0.0
30/10:00am 10.1 -0.4 3.4 63 3.0 NW 48 72 26 39 993.8 994.0 0.0
30/09:30am 9.7 -1.4 2.6 61 3.1 NW 50 74 27 40 993.9 - 0.0
30/09:00am 9.0 -1.5 1.7 60 3.1 NW 46 67 25 36 994.2 994.4 6.0
30/08:30am 8.7 -1.9 1.1 59 3.1 NW 46 65 25 35 994.7 - 6.0
30/08:02am 8.2 -1.9 0.4 58 3.2 NW 43 65 23 35 994.7 - 6.0
30/08:00am 8.2 -1.5 0.4 58 3.2 NW 41 57 22 31 994.8 995.1 6.0
30/07:37am 7.8 -0.4 0.3 59 3.0 NW 33 54 18 29 994.6 - 6.0
30/07:30am 7.6 -0.9 0.8 62 2.8 NW 35 48 19 26 994.7 - 6.0
30/07:00am 8.3 -2.1 -0.4 54 3.5 NW 44 63 24 34 994.5 994.7 6.0
30/06:30am 8.5 -0.2 -0.3 54 3.5 NW 35 61 19 33 994.6 - 6.0
30/06:00am 8.5 0.2 -0.3 54 3.5 WNW 33 61 18 33 994.8 995.1 6.0
30/05:30am 8.4 1.1 -0.1 55 3.4 WNW 28 63 15 34 994.2 - 6.0
30/05:26am 8.5 1.2 0.2 56 3.3 WNW 28 59 15 32 994.2 - 6.0
30/05:00am 8.3 2.8 0.3 57 3.3 W 19 48 10 26 993.7 993.9 6.0
30/04:30am 7.8 3.7 2.1 67 2.4 WNW 13 41 7 22 994.1 - 6.0
30/04:00am 7.5 3.7 1.6 66 2.5 SSE 11 24 6 13 993.5 993.7 6.0
30/03:30am 7.8 2.7 1.0 62 2.8 W 17 74 9 40 992.4 - 6.0
30/03:06am 7.7 0.2 1.5 65 2.6 NW 30 78 16 42 991.4 - 6.0
30/03:00am 7.5 1.6 1.6 66 2.5 NW 22 52 12 28 991.1 991.3 6.0
30/02:30am 6.8 2.3 2.1 72 2.0 WNW 15 44 8 24 990.7 - 6.0
30/02:00am 6.8 -1.4 2.9 76 1.7 WNW 35 67 19 36 990.0 990.2 6.0
30/01:30am 5.3 -1.1 5.2 99 0.0 W 28 70 15 38 990.0 - 6.0
30/01:16am 4.3 -2.5 3.1 92 0.5 WNW 28 100 15 54 989.7 - 6.0
30/01:12am 6.3 -0.6 2.6 77 1.5 W 28 59 15 32 990.6 - 4.6
30/01:00am 7.0 3.4 3.1 76 1.7 WNW 11 35 6 19 990.0 990.2 4.0
30/12:30am 6.6 1.2 2.3 74 1.8 WSW 20 44 11 24 989.0 - 4.0
30/12:02am 7.3 -0.5 1.8 68 2.3 NW 32 65 17 35 988.1 - 4.0
30/12:00am 7.4 2.2 2.3 70 2.2 ENE 19 37 10 20 988.2 988.5 4.0
 
Date/Time
EST
Tmp

°C
App
Tmp
°C
Dew
Point
°C
Rel
Hum
%
Delta-T

°C
Wind Press
QNH
hPa
Press
MSL
hPa
Rain
since
9 am
mm
Dir
 
Spd
km/h
Gust
km/h
Spd
kts
Gust
kts
29/11:34pm 6.9 0.1 3.2 77 1.6 W 28 72 15 39 987.0 - 4.0
29/11:32pm 6.9 1.6 3.2 77 1.6 NW 20 61 11 33 987.2 - 4.0
29/11:30pm 7.3 -2.3 3.2 75 1.8 WSW 43 104 23 56 986.7 - 4.0
29/11:23pm 7.6 -0.5 3.1 73 1.9 WNW 35 117 19 63 986.3 - 3.8
29/11:20pm 7.6 -0.5 3.1 73 1.9 NW 35 96 19 52 986.0 - 3.8
29/11:17pm 8.0 -6.8 2.9 70 2.2 NW 70 107 38 58 986.3 - 3.6
29/11:13pm 9.9 2.4 1.5 56 3.5 WNW 30 98 16 53 986.0 - 3.6
29/11:12pm 10.2 3.5 1.3 54 3.7 WNW 26 91 14 49 986.1 - 3.6
29/11:10pm 10.4 3.2 0.4 50 4.1 W 28 59 15 32 986.0 - 3.6
29/11:08pm 10.5 -2.2 -0.3 47 4.4 NW 56 87 30 47 986.5 - 3.6
29/11:07pm 10.4 1.8 0.2 49 4.2 WNW 35 87 19 47 986.4 - 3.6
29/11:06pm 10.4 3.6 0.7 51 4.0 WNW 26 56 14 30 986.4 - 3.6
29/11:04pm 10.4 -2.7 0.4 50 4.1 NW 59 85 32 46 986.5 - 3.6
29/11:01pm 10.2 3.0 0.8 52 3.9 WNW 28 74 15 40 986.5 - 3.6
29/11:00pm 10.2 4.5 0.8 52 4.0 WNW 20 43 11 23 986.5 986.7 3.6
29/10:30pm 10.4 1.8 0.4 50 4.1 WNW 35 67 19 36 985.9 - 3.6
29/10:00pm 9.4 2.5 2.7 63 2.9 WNW 28 57 15 31 986.8 987.0 3.6
29/09:30pm 9.2 -2.3 2.1 61 3.0 NW 52 87 28 47 985.5 - 3.6
29/09:00pm 8.7 -3.7 2.7 66 2.6 WNW 57 102 31 55 985.3 985.5 3.6
29/08:55pm 8.6 -4.6 2.6 66 2.6 WNW 61 93 33 50 984.9 - 3.6
29/08:47pm 8.5 -8.8 2.7 67 2.5 NW 83 111 45 60 984.9 - 3.6
29/08:30pm 9.7 -2.6 1.8 58 3.3 WNW 56 102 30 55 985.1 - 3.6
29/08:23pm 9.8 -2.7 1.9 58 3.4 WNW 57 89 31 48 984.6 - 3.6
29/08:18pm 9.7 -6.9 1.1 55 3.6 NW 78 104 42 56 984.6 - 3.6
29/08:01pm 9.7 -3.8 2.8 62 3.0 NW 63 82 34 44 984.7 - 3.6
29/08:00pm 9.8 -4.0 3.1 63 3.0 NW 65 82 35 44 984.7 984.9 3.6
29/07:59pm 9.8 -4.1 2.9 62 3.0 NW 65 82 35 44 984.7 - 3.6
29/07:45pm 9.6 -0.1 3.1 64 2.8 NW 43 85 23 46 984.5 - 3.6
29/07:37pm 9.6 1.9 3.6 66 2.6 NW 33 59 18 32 984.7 - 3.6
29/07:34pm 9.6 -2.6 3.6 66 2.6 NW 57 76 31 41 984.9 - 3.6
29/07:33pm 9.6 -3.4 3.6 66 2.6 NW 61 76 33 41 984.8 - 3.6
29/07:30pm 9.7 1.6 3.2 64 2.8 NW 35 72 19 39 985.0 - 3.6
29/07:24pm 10.0 0.8 3.3 63 2.9 NW 41 59 22 32 985.0 - 3.6
29/07:00pm 9.3 -5.3 3.3 66 2.7 WNW 69 102 37 55 984.2 984.3 3.6
29/06:48pm 9.0 -6.5 3.4 68 2.4 WNW 74 95 40 51 983.7 - 3.6
29/06:45pm 8.4 -3.1 4.4 76 1.8 WNW 54 80 29 43 984.0 - 3.6
29/06:36pm 8.2 1.8 5.1 81 1.4 WNW 28 57 15 31 984.2 - 3.6
29/06:30pm 8.3 3.7 5.4 82 1.3 WNW 19 54 10 29 984.2 - 3.6
29/06:00pm 9.5 3.5 6.9 84 1.3 WNW 28 69 15 37 985.4 985.6 2.2
29/05:30pm 9.5 -0.6 7.3 86 1.1 NW 50 78 27 42 983.7 - 1.4
29/05:00pm 10.6 -1.1 6.0 73 2.2 NW 57 82 31 44 984.1 984.2 0.6
29/04:30pm 10.6 -1.3 5.4 70 2.4 NNW 57 83 31 45 983.5 - 0.6
29/04:15pm 10.6 0.1 5.4 70 2.4 NNW 50 70 27 38 983.6 - 0.6
29/04:14pm 10.7 0.5 5.0 68 2.6 NW 48 63 26 34 983.5 - 0.6
29/04:00pm 11.2 -3.0 5.1 66 2.9 NW 69 102 37 55 983.1 983.3 0.6
29/03:30pm 10.8 -1.3 4.3 64 2.9 NW 57 96 31 52 984.2 - 0.6
29/03:00pm 10.9 0.1 4.1 63 3.1 NW 50 74 27 40 985.2 985.4 0.6
29/02:30pm 10.0 -1.7 3.3 63 2.9 WNW 54 83 29 45 985.7 - 0.6
29/02:00pm 9.7 -0.5 3.0 63 3.0 WNW 46 72 25 39 985.9 986.1 0.6
29/01:32pm 9.4 -1.4 4.2 70 2.3 NW 50 70 27 38 987.1 - 0.6
29/01:30pm 9.3 -1.1 4.3 71 2.2 NW 48 65 26 35 987.2 - 0.6
29/01:00pm 9.4 -0.5 4.8 73 2.1 WNW 46 78 25 42 987.8 988.1 0.6
29/12:49pm 9.0 -2.8 4.8 75 1.9 WNW 56 76 30 41 987.5 - 0.6
29/12:47pm 9.0 -2.4 4.8 75 1.9 NW 54 67 29 36 987.5 - 0.6
29/12:41pm 8.7 -6.1 5.1 78 1.6 NW 72 91 39 49 987.1 - 0.6
29/12:40pm 8.6 -7.0 5.0 78 1.6 NW 76 91 41 49 987.1 - 0.6
29/12:30pm 9.3 -1.0 4.9 74 2.0 NW 48 80 26 43 987.6 - 0.4
29/12:22pm 10.0 0.9 4.2 67 2.6 WNW 41 80 22 43 987.8 - 0.4
29/12:00pm 10.4 2.3 5.4 71 2.3 NW 37 57 20 31 988.0 988.3 0.4
29/11:57am 10.4 2.0 5.4 71 2.3 NW 39 57 21 31 988.0 - 0.4
29/11:46am 10.9 -3.0 5.0 67 2.7 NW 67 85 36 46 988.1 - 0.4
29/11:44am 10.7 1.9 5.7 71 2.3 WNW 41 78 22 42 988.2 - 0.4
29/11:31am 11.0 2.7 6.0 71 2.4 NW 39 57 21 31 988.7 - 0.4
29/11:30am 11.0 2.7 6.0 71 2.4 NW 39 56 21 30 988.8 - 0.4
29/11:28am 11.1 3.5 6.0 71 2.4 NW 35 56 19 30 988.9 - 0.4
29/11:27am 11.1 2.8 6.0 71 2.4 NW 39 56 21 30 988.9 - 0.4
29/11:00am 11.5 -1.3 4.7 63 3.2 NW 61 95 33 51 988.0 988.3 0.4
29/10:42am 11.7 -0.9 5.6 66 2.9 NW 61 80 33 43 988.5 - 0.4
29/10:40am 11.6 -1.3 5.7 67 2.8 NW 63 74 34 40 988.4 - 0.4
29/10:30am 11.0 2.1 6.7 75 2.1 NW 43 65 23 35 988.8 - 0.4
29/10:19am 10.9 1.8 6.1 72 2.3 NW 43 65 23 35 988.8 - 0.4
29/10:18am 11.1 2.1 6.3 72 2.3 NW 43 54 23 29 988.8 - 0.4
29/10:00am 10.1 -3.1 6.1 76 1.9 WNW 65 87 35 47 988.6 988.8 0.4
29/09:46am 9.8 -3.3 6.9 82 1.4 WNW 65 89 35 48 988.8 - 0.4
29/09:42am 9.8 -8.4 6.2 78 1.7 WNW 91 115 49 62 988.2 - 0.2
29/09:30am 11.8 -1.4 6.1 68 2.7 NW 65 100 35 54 988.8 - 0.2
29/09:00am 11.0 -1.3 6.9 76 2.0 NW 61 102 33 55 988.8 989.0 2.2
29/08:30am 10.7 -1.6 6.8 77 1.9 NNW 61 93 33 50 988.8 - 2.2
29/08:00am 9.9 -3.1 7.2 83 1.3 NNW 65 89 35 48 989.1 989.3 2.2
29/07:30am 9.4 -2.5 7.0 85 1.1 NNW 59 93 32 50 989.9 - 2.0
29/07:00am 11.8 1.1 4.8 62 3.3 NNW 50 82 27 44 990.8 991.0 0.0
29/06:55am 11.8 2.3 4.8 62 3.2 NNW 44 82 24 44 990.4 - 0.0
29/06:30am 11.3 3.1 4.7 64 3.0 NNW 37 63 20 34 990.7 - 0.0
29/06:14am 11.0 3.7 4.7 65 2.9 NNW 32 67 17 36 991.4 - 0.0
29/06:00am 10.8 5.8 4.5 65 2.9 N 20 52 11 28 991.6 991.9 0.0
29/05:30am 10.5 3.7 5.1 69 2.5 N 30 48 16 26 992.8 - 0.0
29/05:00am 10.3 3.2 5.5 72 2.2 N 32 50 17 27 993.2 993.4 0.0
29/04:33am 10.0 3.6 5.2 72 2.2 N 28 48 15 26 993.9 - 0.0
29/04:30am 10.0 3.6 5.2 72 2.2 N 28 43 15 23 994.1 - 0.0
29/04:14am 9.9 3.5 5.3 73 2.1 N 28 48 15 26 994.4 - 0.0
29/04:00am 10.0 2.9 5.6 74 2.1 N 32 48 17 26 994.7 994.9 0.0
29/03:30am 10.1 1.6 5.1 71 2.3 N 39 59 21 32 995.0 - 0.0
29/03:28am 10.1 1.2 5.1 71 2.3 N 41 59 22 32 995.1 - 0.0
29/03:00am 10.2 1.6 4.4 67 2.6 N 39 54 21 29 995.5 995.8 0.0
29/02:30am 10.3 2.0 4.0 65 2.8 NNW 37 57 20 31 996.2 - 0.0
29/02:00am 10.4 1.6 3.7 63 3.0 NNW 39 57 21 31 996.7 997.0 0.0
29/01:39am 10.3 1.2 3.8 64 2.9 NNW 41 61 22 33 996.6 - 0.0
29/01:30am 10.3 1.5 3.8 64 2.9 NNW 39 56 21 30 996.7 - 0.0
29/01:21am 10.2 2.2 3.9 65 2.8 NNW 35 56 19 30 996.6 - 0.0
29/01:00am 10.2 2.2 3.9 65 2.8 NW 35 50 19 27 997.5 997.7 0.0
29/12:35am 10.2 1.5 4.1 66 2.7 NW 39 57 21 31 997.9 - 0.0
29/12:30am 10.1 1.0 4.0 66 2.7 NW 41 59 22 32 998.1 - 0.0
29/12:23am 10.2 1.5 4.1 66 2.7 NNW 39 59 21 32 998.1 - 0.0
29/12:00am 10.0 2.1 4.2 67 2.6 NNW 35 52 19 28 998.5 998.8 0.0
 
Date/Time
EST
Tmp

°C
App
Tmp
°C
Dew
Point
°C
Rel
Hum
%
Delta-T

°C
Wind Press
QNH
hPa
Press
MSL
hPa
Rain
since
9 am
mm
Dir
 
Spd
km/h
Gust
km/h
Spd
kts
Gust
kts
28/11:30pm 10.3 1.6 4.2 66 2.7 NNW 39 59 21 32 998.9 - 0.0
28/11:08pm 10.0 2.1 4.2 67 2.6 NW 35 54 19 29 998.7 - 0.0
28/11:00pm 10.2 1.1 4.1 66 2.8 NW 41 57 22 31 998.9 999.2 0.0
28/10:30pm 10.5 0.0 3.8 63 3.0 NW 48 67 26 36 999.4 - 0.0
28/10:00pm 10.5 0.0 3.8 63 3.0 NW 48 78 26 42 999.5 999.8 0.0
28/09:43pm 10.5 0.1 4.0 64 2.9 NW 48 80 26 43 999.5 - 0.0
28/09:30pm 10.5 1.8 4.0 64 2.9 NW 39 61 21 33 999.7 - 0.0
28/09:01pm 10.8 2.1 4.0 63 3.1 NW 39 59 21 32 1000.2 - 0.0
28/09:00pm 10.8 2.5 4.0 63 3.1 NW 37 52 20 28 1000.2 1000.5 0.0
28/08:30pm 10.9 4.6 3.7 61 3.2 NW 26 41 14 22 1000.7 - 0.0
28/08:00pm 10.8 6.3 4.3 64 3.0 WNW 17 30 9 16 1001.2 1001.5 0.0
28/07:30pm 11.1 4.5 4.3 63 3.1 NW 28 46 15 25 1001.5 - 0.0
28/07:02pm 11.5 1.9 3.3 57 3.7 NW 43 61 23 33 1001.5 - 0.0
28/07:00pm 11.8 1.9 2.8 54 4.0 NW 44 61 24 33 1001.5 1001.7 0.0
28/06:48pm 12.3 4.3 1.9 49 4.5 NW 33 52 18 28 1001.0 - 0.0
28/06:47pm 12.3 3.5 1.6 48 4.6 NNW 37 52 20 28 1001.0 - 0.0
28/06:30pm 12.2 4.4 1.8 49 4.5 WNW 32 56 17 30 1001.2 - 0.0
28/06:29pm 12.2 4.7 1.5 48 4.6 WNW 30 56 16 30 1001.2 - 0.0
28/06:00pm 11.7 5.9 2.5 53 4.1 WNW 22 32 12 17 1001.0 1001.3 0.0
28/05:36pm 12.3 4.9 1.6 48 4.6 WNW 30 54 16 29 1001.1 - 0.0
28/05:30pm 12.2 4.4 1.5 48 4.6 NW 32 46 17 25 1001.1 - 0.0
28/05:10pm 12.3 5.2 1.3 47 4.7 NW 28 48 15 26 1001.2 - 0.0
28/05:00pm 12.2 5.9 1.5 48 4.6 NW 24 35 13 19 1001.2 1001.5 0.0
28/04:30pm 12.5 5.1 2.1 49 4.6 WNW 30 44 16 24 1001.6 - 0.0
28/04:00pm 13.1 3.7 2.4 48 4.8 NW 41 56 22 30 1001.5 1001.7 0.0
28/03:43pm 13.3 6.4 2.5 48 4.8 NW 28 50 15 27 1001.4 - 0.0
28/03:30pm 13.5 8.1 2.7 48 4.8 NW 20 35 11 19 1001.6 - 0.0
28/03:00pm 13.8 8.8 4.4 53 4.4 NW 20 33 11 18 1002.1 1002.4 0.0
28/02:30pm 12.9 6.6 3.8 54 4.2 NW 26 37 14 20 1002.1 - 0.0
28/02:00pm 13.3 6.3 3.9 53 4.3 NW 30 43 16 23 1002.5 1002.8 0.0
28/01:45pm 13.1 6.1 4.3 55 4.1 NW 30 48 16 26 1002.6 - 0.0
28/01:30pm 13.0 5.5 4.2 55 4.1 NW 33 48 18 26 1002.6 - 0.0
28/01:24pm 13.4 6.1 4.6 55 4.1 NW 32 48 17 26 1002.7 - 0.0
28/01:00pm 13.7 9.6 6.1 60 3.7 WNW 17 26 9 14 1003.1 1003.4 0.0
28/12:30pm 13.2 8.6 6.3 63 3.3 WNW 20 28 11 15 1003.6 - 0.0
28/12:00pm 13.0 9.3 6.4 64 3.2 WNW 15 32 8 17 1004.0 1004.3 0.0
28/11:43am 13.0 6.7 5.7 61 3.5 NW 28 48 15 26 1004.3 - 0.0
28/11:30am 13.1 7.7 6.2 63 3.3 NW 24 39 13 21 1004.7 - 0.0
28/11:00am 13.6 6.9 5.5 58 3.9 NW 30 43 16 23 1005.1 1005.4 0.0
28/10:30am 13.7 6.7 5.8 59 3.8 NW 32 44 17 24 1005.2 - 0.0
28/10:01am 13.3 5.7 5.9 61 3.5 NW 35 54 19 29 1005.0 - 0.0
28/10:00am 13.2 5.2 5.6 60 3.6 NW 37 54 20 29 1005.0 1005.3 0.0
28/09:30am 12.7 4.3 5.6 62 3.4 NW 39 52 21 28 1005.0 - 0.0
28/09:00am 12.4 4.8 5.6 63 3.2 NW 35 54 19 29 1005.0 1005.3 0.2
28/08:30am 11.9 4.8 6.2 68 2.7 NW 33 44 18 24 1004.9 - 0.2
28/08:00am 11.4 5.2 6.3 71 2.4 NNW 28 41 15 22 1005.2 1005.6 0.2
28/07:30am 11.1 5.6 6.0 71 2.4 NNW 24 33 13 18 1005.3 - 0.2
28/07:00am 11.5 5.3 6.0 69 2.6 NW 28 41 15 22 1005.8 1006.1 0.2
28/06:30am 11.7 5.5 6.0 68 2.7 NNW 28 44 15 24 1006.2 - 0.2
28/06:00am 11.5 4.5 6.0 69 2.6 NW 32 44 17 24 1005.6 1006.0 0.2
28/05:30am 11.7 4.1 5.6 66 2.9 NNW 35 59 19 32 1005.4 - 0.2

Latest Capital City Observations: Canberra | Sydney | Melbourne | Brisbane | Adelaide | Perth | Hobart | Darwin

Other Formats:

Comma delimited format used in spreadsheet applications
http://www.bom.gov.au/fwo/IDT60901/IDT60901.95986.axf

JavaScript Object Notation format (JSON) in row-major order
http://www.bom.gov.au/fwo/IDT60901/IDT60901.95986.json